Latest Weather Observations for Norah Head

IDN60901

Issued at 9:35 pm EST Wednesday 23 July 2014 (issued every 10 minutes, with the page automatically refreshed every 10 minutes)

About weather observations | Map of Sydney area stations | Latest observations for Sydney area | Other Formats
Station Details ID: 061366 Name: NORAH HEAD AWS Lat: -33.28 Lon: 151.58 Height: 18.8 m
Data from the previous 72 hours. | See also: Recent months at Norah Head
Date/Time
EST
Tmp

°C
App
Tmp
°C
Dew
Point
°C
Rel
Hum
%
Delta-T

°C
Wind Press
QNH
hPa
Press
MSL
hPa
Rain
since
9 am
mm
Dir
 
Spd
km/h
Gust
km/h
Spd
kts
Gust
kts
23/09:30pm 12.3 10.8 9.3 82 1.5 NW 7 9 4 5 1023.2 - 0.2
23/09:00pm 13.4 12.3 10.0 80 1.7 NNW 6 9 3 5 1023.1 1023.1 0.2
23/08:30pm 13.8 12.1 9.8 77 2.1 NE 9 11 5 6 1023.0 - 0.2
23/08:00pm 13.8 12.0 9.6 76 2.1 NE 9 13 5 7 1022.7 1022.7 0.2
23/07:30pm 14.2 12.2 10.0 76 2.2 ENE 11 13 6 7 1022.5 - 0.2
23/07:00pm 13.9 12.2 9.7 76 2.2 ENE 9 11 5 6 1022.5 1022.5 0.2
23/06:30pm 14.6 13.4 10.2 75 2.3 ENE 7 9 4 5 1022.6 - 0.2
23/06:00pm 14.7 13.4 10.1 74 2.4 E 7 11 4 6 1022.6 1022.6 0.2
23/05:30pm 14.8 13.1 10.0 73 2.5 E 9 11 5 6 1022.4 - 0.2
23/05:00pm 14.7 12.7 10.3 75 2.3 ESE 11 13 6 7 1022.0 1022.0 0.2
23/04:30pm 14.7 12.5 10.7 77 2.1 SE 13 17 7 9 1021.7 - 0.2
23/04:00pm 14.8 12.9 10.6 76 2.2 SE 11 15 6 8 1021.7 1021.7 0.2
23/03:30pm 15.1 13.3 10.7 75 2.3 SSE 11 13 6 7 1021.7 - 0.2
23/03:00pm 15.4 13.1 10.6 73 2.5 SSE 13 17 7 9 1021.6 1021.6 0.2
23/02:30pm 15.9 13.9 10.2 69 3.0 SSE 11 15 6 8 1021.8 - 0.2
23/02:00pm 17.1 14.8 10.5 65 3.5 SSE 13 15 7 8 1021.9 1021.9 0.2
23/01:30pm 17.3 15.4 10.4 64 3.7 SSE 11 13 6 7 1022.2 - 0.2
23/01:00pm 17.2 15.8 10.8 66 3.4 S 9 13 5 7 1022.7 1022.7 0.2
23/12:30pm 16.7 15.6 10.5 67 3.3 S 7 11 4 6 1023.1 - 0.0
23/12:00pm 16.5 15.6 11.2 71 2.8 SSW 7 11 4 6 1023.7 1023.7 0.0
23/11:30am 15.9 14.6 11.1 73 2.6 SSW 9 13 5 7 1024.3 - 0.0
23/11:00am 15.4 13.7 10.0 70 2.8 SSW 9 15 5 8 1024.8 1024.8 0.0
23/10:30am 14.5 13.4 10.5 77 2.1 WSW 7 13 4 7 1025.3 - 0.0
23/10:00am 14.1 12.5 10.1 77 2.1 WSW 9 15 5 8 1025.3 1025.3 0.0
23/09:30am 13.3 11.7 10.1 81 1.7 W 9 15 5 8 1025.3 - 0.0
23/09:00am 11.5 9.7 9.4 87 1.0 W 9 17 5 9 1025.2 1025.2 0.0
23/08:30am 11.6 9.4 9.5 87 1.1 W 11 17 6 9 1024.9 - 0.0
23/08:00am 11.0 8.4 9.4 90 0.8 W 13 17 7 9 1024.6 1024.6 0.0
23/07:30am 10.4 7.3 8.8 90 0.8 WSW 15 19 8 10 1024.3 - 0.0
23/07:00am 10.2 6.7 8.8 91 0.7 W 17 20 9 11 1023.8 1023.8 0.0
23/06:30am 10.2 6.7 8.8 91 0.7 W 17 22 9 12 1023.6 - 0.0
23/06:00am 10.2 6.7 8.6 90 0.8 W 17 20 9 11 1023.4 1023.4 0.0
23/05:30am 10.3 6.8 8.7 90 0.8 W 17 22 9 12 1023.1 - 0.0
23/05:00am 10.1 6.5 8.5 90 0.8 W 17 22 9 12 1022.9 1022.9 0.0
23/04:30am 10.4 6.9 8.7 89 0.8 W 17 22 9 12 1022.6 - 0.0
23/04:00am 10.5 7.0 8.8 89 0.8 W 17 20 9 11 1022.7 1022.7 0.0
23/03:30am 10.4 6.9 8.7 89 0.8 W 17 22 9 12 1023.0 - 0.0
23/03:00am 10.3 6.7 8.4 88 0.9 W 17 20 9 11 1023.1 1023.1 0.0
23/02:30am 10.7 6.8 8.5 86 1.1 W 19 22 10 12 1023.2 - 0.0
23/02:00am 11.0 7.5 8.8 86 1.1 W 17 20 9 11 1023.1 1023.1 0.0
23/01:30am 10.9 7.8 8.7 86 1.1 W 15 17 8 9 1023.4 - 0.0
23/01:00am 11.9 9.9 8.7 81 1.6 WSW 9 13 5 7 1023.3 1023.3 0.0
23/12:30am 12.0 9.6 8.8 81 1.6 WSW 11 17 6 9 1023.3 - 0.0
23/12:00am 12.1 9.4 9.1 82 1.5 W 13 15 7 8 1023.5 1023.5 0.0
 
Date/Time
EST
Tmp

°C
App
Tmp
°C
Dew
Point
°C
Rel
Hum
%
Delta-T

°C
Wind Press
QNH
hPa
Press
MSL
hPa
Rain
since
9 am
mm
Dir
 
Spd
km/h
Gust
km/h
Spd
kts
Gust
kts
22/11:30pm 12.1 10.2 9.1 82 1.5 WSW 9 13 5 7 1023.7 - 0.0
22/11:00pm 12.1 10.2 9.1 82 1.5 WSW 9 13 5 7 1023.8 1023.8 0.0
22/10:30pm 13.0 11.8 9.4 79 1.8 SW 6 7 3 4 1023.8 - 0.0
22/10:00pm 13.8 12.6 9.5 75 2.2 SSW 6 7 3 4 1023.7 1023.7 0.0
22/09:30pm 13.4 12.1 9.3 76 2.1 SSW 6 9 3 5 1023.8 - 0.0
22/09:00pm 14.5 12.8 9.7 73 2.5 SE 9 13 5 7 1023.9 1023.9 0.0
22/08:30pm 14.6 12.9 10.0 74 2.4 SE 9 11 5 6 1023.8 - 0.0
22/08:00pm 14.6 12.5 9.8 73 2.5 SE 11 13 6 7 1023.9 1023.9 0.0
22/07:30pm 14.3 12.6 9.7 74 2.4 SSE 9 13 5 7 1023.9 - 0.0
22/07:00pm 14.7 13.1 10.1 74 2.4 SSE 9 13 5 7 1023.7 1023.7 0.0
22/06:30pm 14.6 12.3 10.4 76 2.2 SSE 13 19 7 10 1023.5 - 0.0
22/06:00pm 14.5 11.8 10.3 76 2.2 SSE 15 19 8 10 1023.1 1023.1 0.0
22/05:30pm 14.8 13.2 11.4 80 1.8 SSE 11 15 6 8 1022.8 - 0.0
22/05:00pm 14.9 12.4 11.1 78 2.0 SSE 15 19 8 10 1022.6 1022.6 0.0
22/04:30pm 15.2 12.4 11.4 78 2.0 SSE 17 20 9 11 1022.3 - 0.0
22/04:00pm 15.2 12.4 11.2 77 2.1 S 17 20 9 11 1022.4 1022.4 0.0
22/03:30pm 15.3 11.9 11.3 77 2.1 S 20 24 11 13 1022.1 - 0.0
22/03:00pm 15.7 12.3 11.1 74 2.5 S 20 24 11 13 1022.0 1022.0 0.0
22/02:30pm 15.9 11.9 10.4 70 2.9 S 22 26 12 14 1022.0 - 0.0
22/02:00pm 16.1 13.0 11.5 74 2.5 S 19 24 10 13 1022.0 1022.0 0.0
22/01:30pm 16.0 12.8 11.2 73 2.6 S 19 24 10 13 1022.2 - 0.0
22/01:00pm 16.0 13.6 11.4 74 2.5 S 15 19 8 10 1022.3 1022.3 0.0
22/12:30pm 16.1 13.0 11.7 75 2.4 S 19 22 10 12 1022.6 - 0.0
22/12:00pm 16.1 13.4 11.7 75 2.4 S 17 20 9 11 1023.2 1023.2 0.0
22/11:30am 16.1 14.1 11.5 74 2.5 S 13 20 7 11 1023.6 - 0.0
22/11:00am 15.4 14.0 10.8 74 2.4 SSW 9 15 5 8 1024.2 1024.2 0.0
22/10:30am 14.8 12.9 10.4 75 2.3 SSW 11 17 6 9 1024.5 - 0.0
22/10:00am 14.9 13.9 11.1 78 2.0 SW 7 13 4 7 1024.6 1024.6 0.0
22/09:30am 13.5 11.9 10.3 81 1.7 W 9 15 5 8 1024.4 - 0.0
22/09:00am 12.5 10.5 10.2 86 1.2 W 11 15 6 8 1024.2 1024.2 0.4
22/08:30am 11.4 9.3 9.7 89 0.9 W 11 17 6 9 1024.3 - 0.4
22/08:00am 10.6 8.0 9.4 92 0.6 W 13 20 7 11 1024.1 1024.1 0.4
22/07:30am 9.8 6.3 8.9 94 0.4 W 17 20 9 11 1023.8 - 0.4
22/07:00am 9.8 6.7 8.7 93 0.5 W 15 19 8 10 1023.6 1023.6 0.4
22/06:30am 10.1 6.7 9.0 93 0.5 W 17 20 9 11 1023.3 - 0.4
22/06:00am 10.3 6.9 9.1 92 0.6 W 17 22 9 12 1023.0 1023.0 0.4
22/05:30am 10.5 7.1 9.3 92 0.6 W 17 20 9 11 1023.0 - 0.4
22/05:00am 10.5 7.2 9.4 93 0.5 W 17 22 9 12 1022.7 1022.7 0.4
22/04:30am 10.4 7.4 9.3 93 0.5 W 15 20 8 11 1022.6 - 0.4
22/04:00am 10.6 7.7 9.5 93 0.5 W 15 19 8 10 1022.6 1022.6 0.4
22/03:30am 10.7 7.8 9.6 93 0.6 W 15 19 8 10 1022.6 - 0.4
22/03:00am 11.0 8.1 9.8 92 0.6 W 15 19 8 10 1022.6 1022.6 0.4
22/02:30am 11.2 8.8 10.0 92 0.6 W 13 17 7 9 1022.7 - 0.4
22/02:00am 12.1 10.9 10.3 89 0.9 SW 7 11 4 6 1022.9 1022.9 0.4
22/01:30am 12.4 10.6 10.8 90 0.8 SW 11 15 6 8 1023.0 - 0.4
22/01:00am 12.0 10.1 10.4 90 0.8 WSW 11 13 6 7 1023.1 1023.1 0.4
22/12:30am 12.5 11.6 10.6 88 1.0 SW 6 9 3 5 1023.2 - 0.4
22/12:00am 12.7 12.2 10.8 88 1.0 SSW 4 6 2 3 1023.5 1023.5 0.4
 
Date/Time
EST
Tmp

°C
App
Tmp
°C
Dew
Point
°C
Rel
Hum
%
Delta-T

°C
Wind Press
QNH
hPa
Press
MSL
hPa
Rain
since
9 am
mm
Dir
 
Spd
km/h
Gust
km/h
Spd
kts
Gust
kts
21/11:30pm 12.6 11.4 10.3 86 1.2 WSW 7 9 4 5 1023.5 - 0.2
21/11:00pm 12.9 11.9 10.3 84 1.3 WSW 6 7 3 4 1023.7 1023.7 0.2
21/10:30pm 13.8 12.9 11.3 85 1.3 ENE 7 11 4 6 1023.8 - 0.2
21/10:00pm 13.8 13.8 11.1 84 1.4 S 2 7 1 4 1023.8 1023.8 0.2
21/09:30pm 13.9 13.1 10.9 82 1.6 SSW 6 9 3 5 1024.0 - 0.0
21/09:00pm 13.4 12.9 10.8 84 1.4 SW 4 6 2 3 1024.0 1024.0 0.0
21/08:30pm 14.2 13.3 10.8 80 1.8 S 6 7 3 4 1024.1 - 0.0
21/08:00pm 14.7 13.4 11.3 80 1.8 SSE 9 13 5 7 1024.0 1024.0 0.0
21/07:30pm 14.6 12.8 11.0 79 1.9 SSE 11 15 6 8 1023.9 - 0.0
21/07:00pm 14.9 13.3 11.5 80 1.8 SSE 11 17 6 9 1023.8 1023.8 0.0
21/06:30pm 15.0 13.7 11.4 79 1.9 S 9 15 5 8 1023.7 - 0.0
21/06:00pm 15.0 12.2 11.2 78 2.0 S 17 20 9 11 1023.4 1023.4 0.0
21/05:30pm 14.9 12.1 11.3 79 1.9 S 17 20 9 11 1023.2 - 0.0
21/05:00pm 14.9 12.2 11.7 81 1.7 S 17 22 9 12 1023.1 1023.1 0.0
21/04:30pm 15.1 12.1 12.1 82 1.6 S 19 24 10 13 1022.9 - 0.0
21/04:00pm 15.1 11.8 11.5 79 1.9 S 20 24 11 13 1023.0 1023.0 0.0
21/03:30pm 15.3 12.1 11.9 80 1.8 S 20 26 11 14 1023.0 - 0.0
21/03:00pm 15.6 12.2 11.4 76 2.2 S 20 26 11 14 1023.0 1023.0 0.0
21/02:30pm 15.9 12.5 11.1 73 2.6 S 20 26 11 14 1023.1 - 0.0
21/02:00pm 15.9 12.8 11.5 75 2.4 S 19 24 10 13 1023.1 1023.1 0.0
21/01:30pm 15.8 12.9 11.0 73 2.6 S 17 22 9 12 1023.3 - 0.0
21/01:00pm 15.7 12.2 10.9 73 2.5 S 20 26 11 14 1023.4 1023.4 0.0
21/12:30pm 15.8 12.4 10.6 71 2.8 S 19 24 10 13 1023.8 - 0.0
21/12:00pm 16.0 13.3 10.3 69 3.0 S 15 20 8 11 1024.3 1024.3 0.0
21/11:30am 15.8 14.3 10.6 71 2.8 SSW 9 15 5 8 1025.0 - 0.0
21/11:00am 14.8 13.6 9.4 70 2.8 SW 6 11 3 6 1025.5 1025.5 0.0
21/10:30am 15.3 13.9 9.4 68 3.0 SW 7 11 4 6 1025.9 - 0.0
21/10:00am 13.9 12.1 8.1 68 2.9 WSW 7 13 4 7 1026.1 1026.1 0.0
21/09:30am 13.8 11.8 8.6 71 2.6 WSW 9 15 5 8 1026.2 - 0.0
21/09:00am 13.1 10.7 8.6 74 2.2 WSW 11 17 6 9 1026.2 1026.2 0.8
21/08:30am 11.6 9.1 8.3 80 1.6 W 11 15 6 8 1026.2 - 0.8
21/08:00am 10.8 7.5 8.0 83 1.4 W 15 20 8 11 1026.1 1026.1 0.8
21/07:30am 10.6 7.7 8.0 84 1.3 WSW 13 17 7 9 1026.0 - 0.8
21/07:00am 10.1 7.1 7.7 85 1.1 WSW 13 17 7 9 1025.8 1025.8 0.8
21/06:30am 10.1 7.1 7.7 85 1.2 WSW 13 19 7 10 1025.8 - 0.8
21/06:00am 10.1 7.1 7.9 86 1.1 W 13 17 7 9 1025.6 1025.6 0.8
21/05:30am 10.4 7.5 8.2 86 1.1 W 13 19 7 10 1025.3 - 0.8
21/05:00am 10.4 7.5 8.0 85 1.2 W 13 19 7 10 1025.1 1025.1 0.8
21/04:30am 10.2 7.3 8.3 88 0.9 W 13 19 7 10 1025.1 - 0.8
21/04:00am 10.3 7.8 8.4 88 0.9 W 11 17 6 9 1025.0 1025.0 0.8
21/03:30am 10.4 8.4 8.5 88 0.9 WSW 9 15 5 8 1025.0 - 0.8
21/03:00am 10.6 7.8 8.7 88 0.9 W 13 17 7 9 1024.9 1024.9 0.8
21/02:30am 10.9 8.3 9.2 89 0.8 WSW 13 20 7 11 1025.0 - 0.8
21/02:00am 11.2 9.4 9.3 88 0.9 SW 9 15 5 8 1025.3 1025.3 0.6
21/01:30am 11.4 9.5 9.1 86 1.1 W 9 13 5 7 1025.4 - 0.0
21/01:00am 11.8 9.4 8.8 82 1.5 W 11 17 6 9 1025.2 1025.2 0.0
21/12:30am 12.8 11.9 9.4 80 1.7 SW 4 7 2 4 1025.1 - 0.0
21/12:00am 13.4 11.6 9.3 76 2.1 WSW 9 15 5 8 1025.2 1025.2 0.0
 
Date/Time
EST
Tmp

°C
App
Tmp
°C
Dew
Point
°C
Rel
Hum
%
Delta-T

°C
Wind Press
QNH
hPa
Press
MSL
hPa
Rain
since
9 am
mm
Dir
 
Spd
km/h
Gust
km/h
Spd
kts
Gust
kts
20/11:30pm 15.0 12.1 9.8 71 2.7 S 15 22 8 12 1025.4 - 0.0
20/11:00pm 15.1 10.6 10.1 72 2.6 S 24 30 13 16 1025.4 1025.4 0.0
20/10:30pm 15.0 10.9 10.2 73 2.5 S 22 32 12 17 1025.6 - 0.0
20/10:00pm 15.2 10.0 10.4 73 2.5 S 28 35 15 19 1025.5 1025.5 0.0

Latest Capital City Observations: Canberra | Sydney | Melbourne | Brisbane | Adelaide | Perth | Hobart | Darwin

Other Formats:

Comma delimited format used in spreadsheet applications
http://www.bom.gov.au/fwo/IDN60901/IDN60901.95770.axf

JavaScript Object Notation format (JSON) in row-major order
http://www.bom.gov.au/fwo/IDN60901/IDN60901.95770.json